sensor_id;sensor_type;location;lat;lon;timestamp;P1;durP1;ratioP1;P2;durP2;ratioP2
20251;SDS011;10284;58.364;15.550;2022-11-15T00:00:02;9.10;;;5.95;;
20251;SDS011;10284;58.364;15.550;2022-11-15T00:02:28;7.75;;;5.20;;
20251;SDS011;10284;58.364;15.550;2022-11-15T00:04:54;8.80;;;5.43;;
20251;SDS011;10284;58.364;15.550;2022-11-15T00:07:19;10.35;;;5.78;;
20251;SDS011;10284;58.364;15.550;2022-11-15T00:09:45;9.70;;;5.80;;
20251;SDS011;10284;58.364;15.550;2022-11-15T00:12:10;8.77;;;5.72;;
20251;SDS011;10284;58.364;15.550;2022-11-15T00:14:35;8.95;;;5.90;;
20251;SDS011;10284;58.364;15.550;2022-11-15T00:17:01;9.38;;;6.55;;
20251;SDS011;10284;58.364;15.550;2022-11-15T00:19:26;10.55;;;5.55;;
20251;SDS011;10284;58.364;15.550;2022-11-15T00:21:52;9.55;;;6.25;;
20251;SDS011;10284;58.364;15.550;2022-11-15T00:24:17;11.75;;;5.82;;
20251;SDS011;10284;58.364;15.550;2022-11-15T00:26:43;9.55;;;5.90;;
20251;SDS011;10284;58.364;15.550;2022-11-15T00:29:08;8.38;;;5.63;;
20251;SDS011;10284;58.364;15.550;2022-11-15T00:31:33;9.57;;;5.80;;
20251;SDS011;10284;58.364;15.550;2022-11-15T00:33:59;9.68;;;6.20;;
20251;SDS011;10284;58.364;15.550;2022-11-15T00:36:24;8.85;;;5.82;;
20251;SDS011;10284;58.364;15.550;2022-11-15T00:38:49;7.35;;;5.85;;
20251;SDS011;10284;58.364;15.550;2022-11-15T00:41:15;9.45;;;5.60;;
20251;SDS011;10284;58.364;15.550;2022-11-15T00:43:40;9.07;;;5.28;;
20251;SDS011;10284;58.364;15.550;2022-11-15T00:46:08;8.60;;;5.22;;
20251;SDS011;10284;58.364;15.550;2022-11-15T00:48:34;9.88;;;6.25;;
20251;SDS011;10284;58.364;15.550;2022-11-15T00:51:00;9.25;;;6.20;;
20251;SDS011;10284;58.364;15.550;2022-11-15T00:53:26;9.68;;;6.18;;
20251;SDS011;10284;58.364;15.550;2022-11-15T00:55:51;8.50;;;6.05;;
20251;SDS011;10284;58.364;15.550;2022-11-15T00:58:17;8.05;;;5.60;;
20251;SDS011;10284;58.364;15.550;2022-11-15T01:00:42;8.32;;;6.03;;
20251;SDS011;10284;58.364;15.550;2022-11-15T01:03:07;8.02;;;5.30;;
20251;SDS011;10284;58.364;15.550;2022-11-15T01:05:33;7.63;;;5.85;;
20251;SDS011;10284;58.364;15.550;2022-11-15T01:07:58;11.85;;;6.03;;
20251;SDS011;10284;58.364;15.550;2022-11-15T01:10:24;9.30;;;6.28;;
20251;SDS011;10284;58.364;15.550;2022-11-15T01:12:50;9.90;;;6.15;;
20251;SDS011;10284;58.364;15.550;2022-11-15T01:15:16;10.55;;;5.80;;
20251;SDS011;10284;58.364;15.550;2022-11-15T01:17:41;7.97;;;5.93;;
20251;SDS011;10284;58.364;15.550;2022-11-15T01:20:07;10.98;;;6.00;;
20251;SDS011;10284;58.364;15.550;2022-11-15T01:22:33;9.57;;;6.60;;
20251;SDS011;10284;58.364;15.550;2022-11-15T01:24:58;10.65;;;6.47;;
20251;SDS011;10284;58.364;15.550;2022-11-15T01:27:24;9.43;;;6.45;;
20251;SDS011;10284;58.364;15.550;2022-11-15T01:29:49;9.95;;;6.65;;
20251;SDS011;10284;58.364;15.550;2022-11-15T01:32:15;8.57;;;6.32;;
20251;SDS011;10284;58.364;15.550;2022-11-15T01:34:41;11.10;;;7.05;;
20251;SDS011;10284;58.364;15.550;2022-11-15T01:37:06;11.20;;;6.65;;
20251;SDS011;10284;58.364;15.550;2022-11-15T01:39:32;9.85;;;7.00;;
20251;SDS011;10284;58.364;15.550;2022-11-15T01:41:57;12.48;;;7.25;;
20251;SDS011;10284;58.364;15.550;2022-11-15T01:47:27;12.50;;;7.28;;
20251;SDS011;10284;58.364;15.550;2022-11-15T01:49:57;11.73;;;7.65;;
20251;SDS011;10284;58.364;15.550;2022-11-15T01:52:26;12.70;;;6.72;;
20251;SDS011;10284;58.364;15.550;2022-11-15T01:54:55;14.27;;;7.93;;
20251;SDS011;10284;58.364;15.550;2022-11-15T01:57:24;14.18;;;8.18;;
20251;SDS011;10284;58.364;15.550;2022-11-15T01:59:49;12.95;;;7.65;;
20251;SDS011;10284;58.364;15.550;2022-11-15T02:02:15;14.85;;;8.23;;
20251;SDS011;10284;58.364;15.550;2022-11-15T02:04:41;12.07;;;8.10;;
20251;SDS011;10284;58.364;15.550;2022-11-15T02:07:08;15.60;;;8.32;;
20251;SDS011;10284;58.364;15.550;2022-11-15T02:09:36;15.85;;;8.20;;
20251;SDS011;10284;58.364;15.550;2022-11-15T02:12:02;13.70;;;8.65;;
20251;SDS011;10284;58.364;15.550;2022-11-15T02:14:28;15.40;;;9.07;;
20251;SDS011;10284;58.364;15.550;2022-11-15T02:35:16;13.80;;;8.13;;
20251;SDS011;10284;58.364;15.550;2022-11-15T02:37:55;11.13;;;7.70;;
20251;SDS011;10284;58.364;15.550;2022-11-15T02:43:01;14.80;;;8.02;;
20251;SDS011;10284;58.364;15.550;2022-11-15T02:45:51;12.95;;;7.30;;
20251;SDS011;10284;58.364;15.550;2022-11-15T02:48:22;12.75;;;7.47;;
20251;SDS011;10284;58.364;15.550;2022-11-15T02:50:47;14.23;;;7.75;;
20251;SDS011;10284;58.364;15.550;2022-11-15T02:53:14;17.48;;;8.40;;
20251;SDS011;10284;58.364;15.550;2022-11-15T02:55:43;10.48;;;6.85;;
20251;SDS011;10284;58.364;15.550;2022-11-15T02:58:25;14.13;;;7.20;;
20251;SDS011;10284;58.364;15.550;2022-11-15T03:09:35;12.30;;;7.78;;
20251;SDS011;10284;58.364;15.550;2022-11-15T03:12:07;15.27;;;8.80;;
20251;SDS011;10284;58.364;15.550;2022-11-15T03:14:41;16.52;;;8.02;;
20251;SDS011;10284;58.364;15.550;2022-11-15T03:17:24;14.88;;;9.02;;
20251;SDS011;10284;58.364;15.550;2022-11-15T03:19:54;18.08;;;9.48;;
20251;SDS011;10284;58.364;15.550;2022-11-15T03:22:22;16.40;;;8.55;;
20251;SDS011;10284;58.364;15.550;2022-11-15T03:24:57;19.00;;;10.90;;
20251;SDS011;10284;58.364;15.550;2022-11-15T03:27:25;17.80;;;10.23;;
20251;SDS011;10284;58.364;15.550;2022-11-15T03:29:55;22.77;;;11.27;;
20251;SDS011;10284;58.364;15.550;2022-11-15T03:32:23;20.02;;;12.88;;
20251;SDS011;10284;58.364;15.550;2022-11-15T03:34:58;19.65;;;12.13;;
20251;SDS011;10284;58.364;15.550;2022-11-15T03:40:09;21.02;;;12.98;;
20251;SDS011;10284;58.364;15.550;2022-11-15T03:42:38;24.15;;;13.88;;
20251;SDS011;10284;58.364;15.550;2022-11-15T03:45:31;24.92;;;14.77;;
20251;SDS011;10284;58.364;15.550;2022-11-15T03:48:13;23.77;;;14.60;;
20251;SDS011;10284;58.364;15.550;2022-11-15T03:50:41;24.45;;;14.60;;
20251;SDS011;10284;58.364;15.550;2022-11-15T03:53:07;23.75;;;14.13;;
20251;SDS011;10284;58.364;15.550;2022-11-15T03:55:33;22.60;;;13.43;;
20251;SDS011;10284;58.364;15.550;2022-11-15T03:57:59;21.55;;;14.18;;
20251;SDS011;10284;58.364;15.550;2022-11-15T04:00:25;24.80;;;14.23;;
20251;SDS011;10284;58.364;15.550;2022-11-15T04:02:51;23.83;;;13.88;;
20251;SDS011;10284;58.364;15.550;2022-11-15T04:05:16;21.42;;;13.13;;
20251;SDS011;10284;58.364;15.550;2022-11-15T04:07:42;23.05;;;13.02;;
20251;SDS011;10284;58.364;15.550;2022-11-15T04:10:08;21.67;;;12.13;;
20251;SDS011;10284;58.364;15.550;2022-11-15T04:12:36;21.58;;;12.60;;
20251;SDS011;10284;58.364;15.550;2022-11-15T04:15:06;23.27;;;12.07;;
20251;SDS011;10284;58.364;15.550;2022-11-15T04:17:40;19.27;;;11.80;;
20251;SDS011;10284;58.364;15.550;2022-11-15T04:20:26;19.67;;;12.38;;
20251;SDS011;10284;58.364;15.550;2022-11-15T04:26:02;16.38;;;11.40;;
20251;SDS011;10284;58.364;15.550;2022-11-15T04:28:29;21.25;;;12.57;;
20251;SDS011;10284;58.364;15.550;2022-11-15T04:30:55;19.60;;;11.32;;
20251;SDS011;10284;58.364;15.550;2022-11-15T04:33:21;22.55;;;12.52;;
20251;SDS011;10284;58.364;15.550;2022-11-15T04:35:46;19.50;;;11.35;;
20251;SDS011;10284;58.364;15.550;2022-11-15T04:38:32;17.63;;;10.68;;
20251;SDS011;10284;58.364;15.550;2022-11-15T04:40:58;16.75;;;9.85;;
20251;SDS011;10284;58.364;15.550;2022-11-15T04:43:23;16.45;;;9.77;;
20251;SDS011;10284;58.364;15.550;2022-11-15T04:45:49;16.80;;;10.02;;
20251;SDS011;10284;58.364;15.550;2022-11-15T04:48:14;16.55;;;9.20;;
20251;SDS011;10284;58.364;15.550;2022-11-15T04:50:39;15.82;;;9.02;;
20251;SDS011;10284;58.364;15.550;2022-11-15T04:53:05;15.98;;;9.38;;
20251;SDS011;10284;58.364;15.550;2022-11-15T04:55:31;19.90;;;9.85;;
20251;SDS011;10284;58.364;15.550;2022-11-15T04:57:59;16.92;;;9.57;;
20251;SDS011;10284;58.364;15.550;2022-11-15T05:00:26;17.23;;;9.55;;
20251;SDS011;10284;58.364;15.550;2022-11-15T05:02:53;16.35;;;9.60;;
20251;SDS011;10284;58.364;15.550;2022-11-15T05:05:37;14.18;;;9.00;;
20251;SDS011;10284;58.364;15.550;2022-11-15T05:08:02;18.33;;;9.85;;
20251;SDS011;10284;58.364;15.550;2022-11-15T05:10:28;17.50;;;9.38;;
20251;SDS011;10284;58.364;15.550;2022-11-15T05:12:53;17.83;;;9.52;;
20251;SDS011;10284;58.364;15.550;2022-11-15T05:15:19;14.65;;;9.15;;
20251;SDS011;10284;58.364;15.550;2022-11-15T05:17:44;16.98;;;9.63;;
20251;SDS011;10284;58.364;15.550;2022-11-15T05:20:10;14.75;;;9.18;;
20251;SDS011;10284;58.364;15.550;2022-11-15T05:22:35;15.90;;;8.73;;
20251;SDS011;10284;58.364;15.550;2022-11-15T05:25:01;18.70;;;8.70;;
20251;SDS011;10284;58.364;15.550;2022-11-15T05:27:27;13.52;;;8.43;;
20251;SDS011;10284;58.364;15.550;2022-11-15T05:29:52;13.52;;;8.13;;
20251;SDS011;10284;58.364;15.550;2022-11-15T05:32:17;13.82;;;7.63;;
20251;SDS011;10284;58.364;15.550;2022-11-15T05:34:43;13.60;;;7.10;;
20251;SDS011;10284;58.364;15.550;2022-11-15T05:37:08;12.68;;;7.53;;
20251;SDS011;10284;58.364;15.550;2022-11-15T05:39:34;10.80;;;7.03;;
20251;SDS011;10284;58.364;15.550;2022-11-15T05:42:01;11.18;;;5.70;;
20251;SDS011;10284;58.364;15.550;2022-11-15T05:44:31;8.77;;;5.13;;
20251;SDS011;10284;58.364;15.550;2022-11-15T05:46:57;8.60;;;5.13;;
20251;SDS011;10284;58.364;15.550;2022-11-15T05:49:24;9.48;;;5.50;;
20251;SDS011;10284;58.364;15.550;2022-11-15T05:51:52;10.05;;;5.70;;
20251;SDS011;10284;58.364;15.550;2022-11-15T05:54:18;10.48;;;5.90;;
20251;SDS011;10284;58.364;15.550;2022-11-15T05:56:44;9.13;;;5.95;;
20251;SDS011;10284;58.364;15.550;2022-11-15T05:59:09;10.30;;;6.28;;
20251;SDS011;10284;58.364;15.550;2022-11-15T06:01:35;13.63;;;6.13;;
20251;SDS011;10284;58.364;15.550;2022-11-15T06:04:01;10.38;;;5.80;;
20251;SDS011;10284;58.364;15.550;2022-11-15T06:06:29;9.60;;;5.05;;
20251;SDS011;10284;58.364;15.550;2022-11-15T06:08:55;8.48;;;4.53;;
20251;SDS011;10284;58.364;15.550;2022-11-15T06:11:20;4.90;;;3.75;;
20251;SDS011;10284;58.364;15.550;2022-11-15T06:13:46;5.70;;;3.00;;
20251;SDS011;10284;58.364;15.550;2022-11-15T06:16:11;6.65;;;4.20;;
20251;SDS011;10284;58.364;15.550;2022-11-15T06:18:37;11.75;;;4.55;;
20251;SDS011;10284;58.364;15.550;2022-11-15T06:21:02;6.80;;;4.03;;
20251;SDS011;10284;58.364;15.550;2022-11-15T06:23:31;9.30;;;4.15;;
20251;SDS011;10284;58.364;15.550;2022-11-15T06:25:57;5.55;;;3.83;;
20251;SDS011;10284;58.364;15.550;2022-11-15T06:28:23;9.25;;;3.88;;
20251;SDS011;10284;58.364;15.550;2022-11-15T06:30:49;5.13;;;3.67;;
20251;SDS011;10284;58.364;15.550;2022-11-15T06:33:14;5.07;;;3.72;;
20251;SDS011;10284;58.364;15.550;2022-11-15T06:35:40;6.93;;;4.07;;
20251;SDS011;10284;58.364;15.550;2022-11-15T06:38:06;5.97;;;4.07;;
20251;SDS011;10284;58.364;15.550;2022-11-15T06:40:36;8.77;;;4.25;;
20251;SDS011;10284;58.364;15.550;2022-11-15T06:43:02;10.32;;;3.88;;
20251;SDS011;10284;58.364;15.550;2022-11-15T06:45:28;7.13;;;4.32;;
20251;SDS011;10284;58.364;15.550;2022-11-15T06:47:54;6.40;;;3.97;;
20251;SDS011;10284;58.364;15.550;2022-11-15T06:50:19;5.07;;;3.58;;
20251;SDS011;10284;58.364;15.550;2022-11-15T06:52:45;4.45;;;3.17;;
20251;SDS011;10284;58.364;15.550;2022-11-15T06:55:10;4.93;;;2.70;;
20251;SDS011;10284;58.364;15.550;2022-11-15T06:57:36;5.47;;;3.38;;
20251;SDS011;10284;58.364;15.550;2022-11-15T07:00:05;4.35;;;3.00;;
20251;SDS011;10284;58.364;15.550;2022-11-15T07:02:31;4.03;;;2.63;;
20251;SDS011;10284;58.364;15.550;2022-11-15T07:04:56;5.22;;;3.35;;
20251;SDS011;10284;58.364;15.550;2022-11-15T07:07:21;3.83;;;2.50;;
20251;SDS011;10284;58.364;15.550;2022-11-15T07:09:47;3.10;;;2.47;;
20251;SDS011;10284;58.364;15.550;2022-11-15T07:12:12;4.80;;;2.75;;
20251;SDS011;10284;58.364;15.550;2022-11-15T07:14:38;3.70;;;2.20;;
20251;SDS011;10284;58.364;15.550;2022-11-15T07:17:04;2.67;;;1.90;;
20251;SDS011;10284;58.364;15.550;2022-11-15T07:19:30;2.33;;;2.13;;
20251;SDS011;10284;58.364;15.550;2022-11-15T07:21:55;3.40;;;2.00;;
20251;SDS011;10284;58.364;15.550;2022-11-15T07:24:21;4.13;;;2.08;;
20251;SDS011;10284;58.364;15.550;2022-11-15T07:26:46;4.72;;;1.67;;
20251;SDS011;10284;58.364;15.550;2022-11-15T07:29:11;2.42;;;1.85;;
20251;SDS011;10284;58.364;15.550;2022-11-15T07:31:37;2.22;;;1.70;;
20251;SDS011;10284;58.364;15.550;2022-11-15T07:34:02;3.22;;;1.65;;
20251;SDS011;10284;58.364;15.550;2022-11-15T07:36:28;2.50;;;1.60;;
20251;SDS011;10284;58.364;15.550;2022-11-15T07:38:53;2.45;;;1.50;;
20251;SDS011;10284;58.364;15.550;2022-11-15T07:41:19;1.75;;;1.40;;
20251;SDS011;10284;58.364;15.550;2022-11-15T07:43:44;2.17;;;1.27;;
20251;SDS011;10284;58.364;15.550;2022-11-15T07:46:10;1.45;;;1.30;;
20251;SDS011;10284;58.364;15.550;2022-11-15T07:48:35;2.53;;;1.45;;
20251;SDS011;10284;58.364;15.550;2022-11-15T07:51:02;1.42;;;1.17;;
20251;SDS011;10284;58.364;15.550;2022-11-15T07:53:27;1.55;;;1.00;;
20251;SDS011;10284;58.364;15.550;2022-11-15T07:55:53;1.52;;;1.20;;
20251;SDS011;10284;58.364;15.550;2022-11-15T07:58:18;1.77;;;1.50;;
20251;SDS011;10284;58.364;15.550;2022-11-15T08:00:44;1.48;;;1.38;;
20251;SDS011;10284;58.364;15.550;2022-11-15T08:03:11;1.20;;;1.10;;
20251;SDS011;10284;58.364;15.550;2022-11-15T08:05:38;1.20;;;1.00;;
20251;SDS011;10284;58.364;15.550;2022-11-15T08:08:05;1.77;;;1.02;;
20251;SDS011;10284;58.364;15.550;2022-11-15T08:10:32;1.33;;;1.10;;
20251;SDS011;10284;58.364;15.550;2022-11-15T08:13:07;2.88;;;1.20;;
20251;SDS011;10284;58.364;15.550;2022-11-15T08:15:35;1.95;;;1.00;;
20251;SDS011;10284;58.364;15.550;2022-11-15T08:18:02;1.48;;;1.30;;
20251;SDS011;10284;58.364;15.550;2022-11-15T08:20:29;1.40;;;1.20;;
20251;SDS011;10284;58.364;15.550;2022-11-15T08:22:56;1.52;;;1.38;;
20251;SDS011;10284;58.364;15.550;2022-11-15T08:25:22;2.28;;;1.30;;
20251;SDS011;10284;58.364;15.550;2022-11-15T08:27:50;1.60;;;1.13;;
20251;SDS011;10284;58.364;15.550;2022-11-15T08:30:17;1.10;;;1.00;;
20251;SDS011;10284;58.364;15.550;2022-11-15T08:32:42;1.92;;;1.20;;
20251;SDS011;10284;58.364;15.550;2022-11-15T08:35:08;2.13;;;1.10;;
20251;SDS011;10284;58.364;15.550;2022-11-15T08:37:33;1.30;;;1.10;;
20251;SDS011;10284;58.364;15.550;2022-11-15T08:39:59;1.30;;;1.20;;
20251;SDS011;10284;58.364;15.550;2022-11-15T08:42:24;1.48;;;1.33;;
20251;SDS011;10284;58.364;15.550;2022-11-15T08:44:50;1.63;;;1.20;;
20251;SDS011;10284;58.364;15.550;2022-11-15T08:47:15;1.40;;;1.10;;
20251;SDS011;10284;58.364;15.550;2022-11-15T08:49:40;1.67;;;1.08;;
20251;SDS011;10284;58.364;15.550;2022-11-15T08:52:06;1.42;;;1.20;;
20251;SDS011;10284;58.364;15.550;2022-11-15T08:54:31;1.33;;;1.23;;
20251;SDS011;10284;58.364;15.550;2022-11-15T08:56:57;1.23;;;0.98;;
20251;SDS011;10284;58.364;15.550;2022-11-15T08:59:22;1.10;;;1.00;;
20251;SDS011;10284;58.364;15.550;2022-11-15T09:01:48;2.13;;;1.20;;
20251;SDS011;10284;58.364;15.550;2022-11-15T09:04:13;1.35;;;1.17;;
20251;SDS011;10284;58.364;15.550;2022-11-15T09:06:38;2.05;;;1.55;;
20251;SDS011;10284;58.364;15.550;2022-11-15T09:09:04;2.38;;;1.67;;
20251;SDS011;10284;58.364;15.550;2022-11-15T09:11:29;2.13;;;1.50;;
20251;SDS011;10284;58.364;15.550;2022-11-15T09:13:55;1.98;;;1.67;;
20251;SDS011;10284;58.364;15.550;2022-11-15T09:16:20;1.77;;;1.30;;
20251;SDS011;10284;58.364;15.550;2022-11-15T09:18:45;2.55;;;1.50;;
20251;SDS011;10284;58.364;15.550;2022-11-15T09:21:11;1.50;;;1.38;;
20251;SDS011;10284;58.364;15.550;2022-11-15T09:23:36;1.65;;;1.50;;
20251;SDS011;10284;58.364;15.550;2022-11-15T09:26:03;1.92;;;1.42;;
20251;SDS011;10284;58.364;15.550;2022-11-15T09:28:29;2.35;;;1.65;;
20251;SDS011;10284;58.364;15.550;2022-11-15T09:30:56;2.58;;;1.55;;
20251;SDS011;10284;58.364;15.550;2022-11-15T09:33:25;2.05;;;1.42;;
20251;SDS011;10284;58.364;15.550;2022-11-15T09:35:52;2.47;;;1.48;;
20251;SDS011;10284;58.364;15.550;2022-11-15T09:38:17;2.03;;;1.38;;
20251;SDS011;10284;58.364;15.550;2022-11-15T09:40:43;1.35;;;1.25;;
20251;SDS011;10284;58.364;15.550;2022-11-15T09:43:54;2.10;;;1.50;;
20251;SDS011;10284;58.364;15.550;2022-11-15T09:48:55;1.58;;;1.08;;
20251;SDS011;10284;58.364;15.550;2022-11-15T09:51:29;2.83;;;1.60;;
20251;SDS011;10284;58.364;15.550;2022-11-15T09:54:23;2.70;;;1.20;;
20251;SDS011;10284;58.364;15.550;2022-11-15T09:59:51;1.50;;;1.27;;
20251;SDS011;10284;58.364;15.550;2022-11-15T10:05:07;2.15;;;1.52;;
20251;SDS011;10284;58.364;15.550;2022-11-15T10:07:39;2.15;;;1.48;;
20251;SDS011;10284;58.364;15.550;2022-11-15T10:12:41;3.25;;;1.50;;
20251;SDS011;10284;58.364;15.550;2022-11-15T10:15:11;1.70;;;1.30;;
20251;SDS011;10284;58.364;15.550;2022-11-15T10:20:32;2.22;;;1.60;;
20251;SDS011;10284;58.364;15.550;2022-11-15T10:23:06;2.47;;;1.65;;
20251;SDS011;10284;58.364;15.550;2022-11-15T10:25:36;3.33;;;1.73;;
20251;SDS011;10284;58.364;15.550;2022-11-15T10:30:41;1.50;;;1.40;;
20251;SDS011;10284;58.364;15.550;2022-11-15T10:33:27;1.67;;;1.30;;
20251;SDS011;10284;58.364;15.550;2022-11-15T10:36:41;2.15;;;1.35;;
20251;SDS011;10284;58.364;15.550;2022-11-15T10:41:16;2.00;;;1.20;;
20251;SDS011;10284;58.364;15.550;2022-11-15T10:43:42;2.47;;;1.20;;
20251;SDS011;10284;58.364;15.550;2022-11-15T10:46:42;2.53;;;1.30;;
20251;SDS011;10284;58.364;15.550;2022-11-15T10:49:34;1.55;;;1.30;;
20251;SDS011;10284;58.364;15.550;2022-11-15T10:51:57;2.03;;;0.93;;
20251;SDS011;10284;58.364;15.550;2022-11-15T10:54:43;2.20;;;1.10;;
20251;SDS011;10284;58.364;15.550;2022-11-15T10:57:18;3.10;;;1.13;;
20251;SDS011;10284;58.364;15.550;2022-11-15T10:59:46;1.88;;;1.02;;
20251;SDS011;10284;58.364;15.550;2022-11-15T11:07:54;1.83;;;0.93;;
20251;SDS011;10284;58.364;15.550;2022-11-15T11:10:56;1.85;;;0.70;;
20251;SDS011;10284;58.364;15.550;2022-11-15T11:13:24;3.45;;;0.90;;
20251;SDS011;10284;58.364;15.550;2022-11-15T11:21:10;4.45;;;0.75;;
20251;SDS011;10284;58.364;15.550;2022-11-15T11:23:42;4.25;;;1.13;;
20251;SDS011;10284;58.364;15.550;2022-11-15T11:34:15;2.38;;;0.70;;
20251;SDS011;10284;58.364;15.550;2022-11-15T11:36:55;1.58;;;0.52;;
20251;SDS011;10284;58.364;15.550;2022-11-15T11:47:40;4.20;;;0.80;;
20251;SDS011;10284;58.364;15.550;2022-11-15T11:50:12;4.30;;;0.80;;
20251;SDS011;10284;58.364;15.550;2022-11-15T11:55:33;1.38;;;0.63;;
20251;SDS011;10284;58.364;15.550;2022-11-15T12:00:32;2.13;;;0.90;;
20251;SDS011;10284;58.364;15.550;2022-11-15T12:05:47;2.63;;;0.80;;
20251;SDS011;10284;58.364;15.550;2022-11-15T12:11:16;4.57;;;1.00;;
20251;SDS011;10284;58.364;15.550;2022-11-15T12:13:46;2.30;;;0.90;;
20251;SDS011;10284;58.364;15.550;2022-11-15T12:19:00;3.55;;;0.90;;
20251;SDS011;10284;58.364;15.550;2022-11-15T12:24:18;3.17;;;0.60;;
20251;SDS011;10284;58.364;15.550;2022-11-15T12:26:52;1.67;;;0.73;;
20251;SDS011;10284;58.364;15.550;2022-11-15T12:29:29;2.33;;;0.80;;
20251;SDS011;10284;58.364;15.550;2022-11-15T12:31:58;0.93;;;0.70;;
20251;SDS011;10284;58.364;15.550;2022-11-15T12:36:55;2.65;;;0.77;;
20251;SDS011;10284;58.364;15.550;2022-11-15T12:39:20;1.90;;;0.63;;
20251;SDS011;10284;58.364;15.550;2022-11-15T12:47:23;3.47;;;0.82;;
20251;SDS011;10284;58.364;15.550;2022-11-15T12:49:49;2.17;;;0.75;;
20251;SDS011;10284;58.364;15.550;2022-11-15T12:52:15;4.28;;;0.80;;
20251;SDS011;10284;58.364;15.550;2022-11-15T13:02:30;3.47;;;0.80;;
20251;SDS011;10284;58.364;15.550;2022-11-15T13:17:37;2.35;;;0.70;;
20251;SDS011;10284;58.364;15.550;2022-11-15T13:20:17;2.03;;;0.70;;
20251;SDS011;10284;58.364;15.550;2022-11-15T13:34:48;1.88;;;0.60;;
20251;SDS011;10284;58.364;15.550;2022-11-15T13:36:58;4.97;;;1.13;;
20251;SDS011;10284;58.364;15.550;2022-11-15T13:39:29;2.50;;;0.75;;
20251;SDS011;10284;58.364;15.550;2022-11-15T13:41:55;2.47;;;0.90;;
20251;SDS011;10284;58.364;15.550;2022-11-15T13:44:22;4.18;;;0.70;;
20251;SDS011;10284;58.364;15.550;2022-11-15T13:46:47;3.38;;;0.65;;
20251;SDS011;10284;58.364;15.550;2022-11-15T13:49:13;1.52;;;0.60;;
20251;SDS011;10284;58.364;15.550;2022-11-15T13:57:23;2.35;;;0.60;;
20251;SDS011;10284;58.364;15.550;2022-11-15T14:02:26;1.58;;;0.68;;
20251;SDS011;10284;58.364;15.550;2022-11-15T14:04:55;1.05;;;0.55;;
20251;SDS011;10284;58.364;15.550;2022-11-15T14:07:24;1.02;;;0.50;;
20251;SDS011;10284;58.364;15.550;2022-11-15T14:09:50;0.65;;;0.52;;
20251;SDS011;10284;58.364;15.550;2022-11-15T14:12:27;0.90;;;0.70;;
20251;SDS011;10284;58.364;15.550;2022-11-15T14:15:01;1.45;;;0.70;;
20251;SDS011;10284;58.364;15.550;2022-11-15T14:17:44;2.75;;;0.68;;
20251;SDS011;10284;58.364;15.550;2022-11-15T14:23:41;2.25;;;0.50;;
20251;SDS011;10284;58.364;15.550;2022-11-15T14:25:52;1.52;;;0.60;;
20251;SDS011;10284;58.364;15.550;2022-11-15T14:30:47;0.98;;;0.60;;
20251;SDS011;10284;58.364;15.550;2022-11-15T14:35:54;3.33;;;0.85;;
20251;SDS011;10284;58.364;15.550;2022-11-15T14:38:21;1.38;;;0.60;;
20251;SDS011;10284;58.364;15.550;2022-11-15T14:40:46;2.40;;;0.90;;
20251;SDS011;10284;58.364;15.550;2022-11-15T14:43:12;3.17;;;0.75;;
20251;SDS011;10284;58.364;15.550;2022-11-15T14:45:38;2.30;;;0.90;;
20251;SDS011;10284;58.364;15.550;2022-11-15T14:48:04;2.30;;;0.65;;
20251;SDS011;10284;58.364;15.550;2022-11-15T14:50:29;2.30;;;0.80;;
20251;SDS011;10284;58.364;15.550;2022-11-15T14:52:55;1.73;;;0.73;;
20251;SDS011;10284;58.364;15.550;2022-11-15T14:57:49;2.63;;;0.70;;
20251;SDS011;10284;58.364;15.550;2022-11-15T15:00:15;2.72;;;0.50;;
20251;SDS011;10284;58.364;15.550;2022-11-15T15:02:42;3.80;;;0.80;;
20251;SDS011;10284;58.364;15.550;2022-11-15T15:05:15;1.63;;;0.80;;
20251;SDS011;10284;58.364;15.550;2022-11-15T15:07:43;1.92;;;0.70;;
20251;SDS011;10284;58.364;15.550;2022-11-15T15:10:09;3.80;;;0.73;;
20251;SDS011;10284;58.364;15.550;2022-11-15T15:12:34;2.38;;;0.88;;
20251;SDS011;10284;58.364;15.550;2022-11-15T15:15:00;2.03;;;0.70;;
20251;SDS011;10284;58.364;15.550;2022-11-15T15:17:25;1.17;;;0.70;;
20251;SDS011;10284;58.364;15.550;2022-11-15T15:19:51;3.15;;;0.65;;
20251;SDS011;10284;58.364;15.550;2022-11-15T15:22:17;2.70;;;0.80;;
20251;SDS011;10284;58.364;15.550;2022-11-15T15:24:44;5.30;;;0.88;;
20251;SDS011;10284;58.364;15.550;2022-11-15T15:27:10;3.92;;;0.80;;
20251;SDS011;10284;58.364;15.550;2022-11-15T15:29:35;2.95;;;0.75;;
20251;SDS011;10284;58.364;15.550;2022-11-15T15:32:01;2.35;;;0.80;;
20251;SDS011;10284;58.364;15.550;2022-11-15T15:34:26;2.40;;;0.70;;
20251;SDS011;10284;58.364;15.550;2022-11-15T15:37:07;2.15;;;0.50;;
20251;SDS011;10284;58.364;15.550;2022-11-15T15:39:34;3.53;;;0.77;;
20251;SDS011;10284;58.364;15.550;2022-11-15T15:41:59;3.90;;;0.85;;
20251;SDS011;10284;58.364;15.550;2022-11-15T15:44:24;2.10;;;0.90;;
20251;SDS011;10284;58.364;15.550;2022-11-15T15:46:50;1.58;;;0.70;;
20251;SDS011;10284;58.364;15.550;2022-11-15T15:49:16;3.38;;;0.63;;
20251;SDS011;10284;58.364;15.550;2022-11-15T15:51:41;2.20;;;0.82;;
20251;SDS011;10284;58.364;15.550;2022-11-15T15:54:06;3.45;;;0.90;;
20251;SDS011;10284;58.364;15.550;2022-11-15T15:56:32;2.25;;;0.80;;
20251;SDS011;10284;58.364;15.550;2022-11-15T15:58:57;2.70;;;0.93;;
20251;SDS011;10284;58.364;15.550;2022-11-15T16:01:23;4.82;;;1.20;;
20251;SDS011;10284;58.364;15.550;2022-11-15T16:03:49;1.67;;;0.85;;
20251;SDS011;10284;58.364;15.550;2022-11-15T16:09:00;4.40;;;1.00;;
20251;SDS011;10284;58.364;15.550;2022-11-15T16:11:26;6.07;;;1.40;;
20251;SDS011;10284;58.364;15.550;2022-11-15T16:13:51;2.92;;;0.98;;
20251;SDS011;10284;58.364;15.550;2022-11-15T16:16:16;3.55;;;1.30;;
20251;SDS011;10284;58.364;15.550;2022-11-15T16:18:42;2.45;;;1.00;;
20251;SDS011;10284;58.364;15.550;2022-11-15T16:21:07;2.80;;;1.42;;
20251;SDS011;10284;58.364;15.550;2022-11-15T16:23:33;5.75;;;1.17;;
20251;SDS011;10284;58.364;15.550;2022-11-15T16:25:59;2.03;;;1.15;;
20251;SDS011;10284;58.364;15.550;2022-11-15T16:28:27;1.80;;;1.10;;
20251;SDS011;10284;58.364;15.550;2022-11-15T16:31:03;5.03;;;1.30;;
20251;SDS011;10284;58.364;15.550;2022-11-15T16:33:30;3.92;;;1.23;;
20251;SDS011;10284;58.364;15.550;2022-11-15T16:35:56;2.92;;;1.35;;
20251;SDS011;10284;58.364;15.550;2022-11-15T16:38:21;2.58;;;1.10;;
20251;SDS011;10284;58.364;15.550;2022-11-15T16:40:46;5.18;;;1.30;;
20251;SDS011;10284;58.364;15.550;2022-11-15T16:43:12;3.78;;;1.25;;
20251;SDS011;10284;58.364;15.550;2022-11-15T16:45:37;4.07;;;1.58;;
20251;SDS011;10284;58.364;15.550;2022-11-15T16:48:03;2.67;;;1.40;;
20251;SDS011;10284;58.364;15.550;2022-11-15T16:50:30;2.95;;;1.50;;
20251;SDS011;10284;58.364;15.550;2022-11-15T16:52:59;6.18;;;1.50;;
20251;SDS011;10284;58.364;15.550;2022-11-15T16:55:25;3.50;;;1.40;;
20251;SDS011;10284;58.364;15.550;2022-11-15T16:57:52;3.55;;;1.60;;
20251;SDS011;10284;58.364;15.550;2022-11-15T17:00:18;3.22;;;1.20;;
20251;SDS011;10284;58.364;15.550;2022-11-15T17:02:45;3.58;;;1.63;;
20251;SDS011;10284;58.364;15.550;2022-11-15T17:05:11;2.95;;;1.35;;
20251;SDS011;10284;58.364;15.550;2022-11-15T17:07:37;6.35;;;1.33;;
20251;SDS011;10284;58.364;15.550;2022-11-15T17:10:03;3.05;;;1.42;;
20251;SDS011;10284;58.364;15.550;2022-11-15T17:12:29;2.38;;;1.35;;
20251;SDS011;10284;58.364;15.550;2022-11-15T17:14:55;1.58;;;1.20;;
20251;SDS011;10284;58.364;15.550;2022-11-15T17:17:21;3.05;;;1.55;;